createdAt,value
2019-03-19T00:00:40.912Z,76.77
2019-03-19T00:03:11.581Z,76.67
2019-03-19T00:05:42.238Z,76.92
2019-03-19T00:08:12.725Z,77.10
2019-03-19T00:10:43.199Z,77.55
2019-03-19T00:13:15.184Z,77.94
2019-03-19T00:15:53.832Z,78.34
2019-03-19T00:18:25.914Z,77.96
2019-03-19T00:20:56.395Z,78.40
2019-03-19T00:23:26.916Z,78.60
2019-03-19T00:25:57.399Z,78.92
2019-03-19T00:28:27.935Z,78.96
2019-03-19T00:30:58.370Z,79.19
2019-03-19T00:33:28.827Z,80.02
2019-03-19T00:35:59.329Z,80.72
2019-03-19T00:38:29.792Z,80.46
2019-03-19T00:41:00.683Z,80.95
2019-03-19T00:43:31.315Z,80.87
2019-03-19T00:46:01.889Z,81.02
2019-03-19T00:48:32.477Z,81.58
2019-03-19T00:51:03.048Z,82.12
2019-03-19T00:53:33.566Z,82.38
2019-03-19T00:56:04.166Z,82.53
2019-03-19T00:58:38.623Z,82.54
2019-03-19T01:01:09.153Z,83.22
2019-03-19T01:03:40.574Z,83.63
2019-03-19T01:06:11.067Z,84.06
2019-03-19T01:08:41.538Z,83.99
2019-03-19T01:11:11.999Z,84.10
2019-03-19T01:13:42.453Z,84.50
2019-03-19T01:16:14.889Z,83.92
2019-03-19T01:18:45.398Z,84.30
2019-03-19T01:21:15.843Z,84.74
2019-03-19T01:23:46.317Z,85.16
2019-03-19T01:26:16.782Z,85.21
2019-03-19T01:28:47.305Z,85.23
2019-03-19T01:31:17.779Z,85.88
2019-03-19T01:33:48.258Z,85.91
2019-03-19T01:36:18.709Z,86.29
2019-03-19T01:38:49.174Z,86.71
2019-03-19T01:41:19.613Z,86.98
2019-03-19T01:43:50.071Z,87.12
2019-03-19T01:46:20.570Z,86.94
2019-03-19T01:48:55.093Z,86.93
2019-03-19T01:51:25.799Z,86.97
2019-03-19T01:53:56.291Z,87.32
2019-03-19T01:56:26.816Z,87.18
2019-03-19T01:58:57.282Z,87.57
2019-03-19T02:01:27.909Z,87.48
2019-03-19T02:03:58.360Z,87.56
2019-03-19T02:06:28.812Z,88.03
2019-03-19T02:08:59.342Z,88.16
2019-03-19T02:11:29.815Z,88.45
2019-03-19T02:14:00.346Z,88.92
2019-03-19T02:16:30.837Z,89.05
2019-03-19T02:19:01.410Z,88.90
2019-03-19T02:21:31.829Z,89.20
2019-03-19T02:24:02.316Z,89.24
2019-03-19T02:26:32.844Z,89.43
2019-03-19T02:29:03.413Z,89.59
2019-03-19T02:34:33.093Z,90.07
2019-03-19T02:37:03.618Z,90.04
2019-03-19T02:39:34.233Z,90.28
2019-03-19T02:42:04.780Z,90.54
2019-03-19T02:44:35.325Z,90.38
2019-03-19T02:47:05.766Z,90.74
2019-03-19T02:49:36.358Z,90.87
2019-03-19T02:52:06.956Z,90.92
2019-03-19T02:54:53.394Z,91.11
2019-03-19T02:57:23.976Z,91.21
2019-03-19T02:59:55.988Z,91.03
2019-03-19T03:02:26.569Z,91.25
2019-03-19T03:04:57.232Z,91.24
2019-03-19T03:07:27.653Z,91.19
2019-03-19T03:09:58.096Z,90.70
2019-03-19T03:12:28.584Z,90.62
2019-03-19T03:14:59.138Z,90.61
2019-03-19T03:17:29.690Z,90.29
2019-03-19T03:20:00.125Z,90.00
2019-03-19T03:22:30.582Z,89.81
2019-03-19T03:25:01.056Z,89.75
2019-03-19T03:27:34.094Z,90.00
2019-03-19T03:30:08.590Z,90.17
2019-03-19T03:32:40.682Z,90.14
2019-03-19T03:35:12.697Z,90.18
2019-03-19T03:37:43.284Z,90.27
2019-03-19T03:43:06.924Z,90.29
2019-03-19T03:45:37.522Z,90.54
2019-03-19T03:48:09.554Z,90.30
2019-03-19T03:50:40.185Z,90.26
2019-03-19T03:53:16.883Z,90.19
2019-03-19T03:55:47.521Z,90.07
2019-03-19T03:58:18.029Z,89.99
2019-03-19T04:00:51.297Z,89.99
2019-03-19T04:06:32.507Z,89.83
2019-03-19T04:09:16.263Z,89.30
2019-03-19T04:11:46.832Z,89.29
2019-03-19T04:14:17.322Z,89.40
2019-03-19T04:16:47.817Z,89.44
2019-03-19T04:19:20.386Z,89.63
2019-03-19T04:24:44.677Z,89.48
2019-03-19T04:27:16.650Z,89.24
2019-03-19T04:29:47.645Z,88.83
2019-03-19T04:32:34.089Z,88.80
2019-03-19T04:35:10.246Z,88.71
2019-03-19T04:38:01.192Z,88.18
2019-03-19T04:40:31.387Z,87.75
2019-03-19T04:43:03.558Z,87.95
2019-03-19T04:45:37.199Z,87.43
2019-03-19T04:48:07.771Z,87.00
2019-03-19T04:50:38.331Z,86.89
2019-03-19T04:53:10.341Z,87.11
2019-03-19T04:55:40.795Z,87.23
2019-03-19T04:58:13.026Z,86.68
2019-03-19T05:00:45.122Z,86.43
2019-03-19T05:03:17.146Z,85.86
2019-03-19T05:05:47.566Z,85.72
2019-03-19T05:08:23.277Z,86.14
2019-03-19T05:10:55.307Z,86.31
2019-03-19T05:13:25.782Z,86.05
2019-03-19T05:16:00.521Z,86.51
2019-03-19T05:21:23.500Z,86.15
2019-03-19T05:23:53.952Z,87.66
2019-03-19T05:26:26.073Z,88.18
2019-03-19T05:28:58.164Z,88.43
2019-03-19T05:31:28.732Z,86.92
2019-03-19T05:34:03.733Z,85.86
2019-03-19T05:36:34.302Z,86.36
2019-03-19T05:39:09.847Z,85.45
2019-03-19T05:41:42.610Z,85.11
2019-03-19T05:44:16.481Z,85.13
2019-03-19T05:46:51.299Z,85.01
2019-03-19T05:49:29.151Z,84.30
2019-03-19T05:51:59.632Z,83.57
2019-03-19T05:54:32.756Z,83.04
2019-03-19T05:57:06.176Z,82.69
2019-03-19T05:59:41.074Z,82.46
2019-03-19T06:02:11.595Z,81.79
2019-03-19T06:04:43.751Z,81.38
2019-03-19T06:07:15.906Z,80.91
2019-03-19T06:09:49.047Z,80.45
2019-03-19T06:12:21.315Z,79.77
2019-03-19T06:14:52.006Z,79.55
2019-03-19T06:17:23.662Z,78.49
2019-03-19T06:19:56.565Z,78.09
2019-03-19T06:22:28.694Z,77.97
2019-03-19T06:25:04.212Z,77.70
2019-03-19T06:27:34.834Z,77.44
2019-03-19T06:33:12.009Z,76.93
2019-03-19T06:35:44.031Z,75.90
2019-03-19T06:38:17.391Z,75.48
2019-03-19T06:40:48.962Z,74.65
2019-03-19T06:43:23.005Z,75.04
2019-03-19T06:46:08.618Z,75.42
2019-03-19T06:48:41.930Z,74.99
2019-03-19T06:51:20.551Z,74.89
2019-03-19T06:53:51.284Z,74.48
2019-03-19T06:59:15.832Z,74.31
2019-03-19T07:01:50.460Z,73.34
2019-03-19T07:04:20.976Z,73.17
2019-03-19T07:06:52.822Z,73.52
2019-03-19T07:09:28.917Z,72.26
2019-03-19T07:12:01.679Z,72.08
2019-03-19T07:14:34.055Z,72.53
2019-03-19T07:17:05.103Z,71.25
2019-03-19T07:19:53.378Z,70.69
2019-03-19T07:22:30.806Z,69.75
2019-03-19T07:25:03.171Z,69.71
2019-03-19T07:27:35.885Z,69.07
2019-03-19T07:30:23.353Z,69.19
2019-03-19T07:32:56.261Z,68.68
2019-03-19T07:35:26.821Z,68.31
2019-03-19T07:37:58.967Z,68.39
2019-03-19T07:40:34.513Z,68.41
2019-03-19T07:43:05.095Z,66.85
2019-03-19T07:45:35.624Z,66.24
2019-03-19T07:48:06.128Z,65.38
2019-03-19T07:50:37.766Z,65.26
2019-03-19T07:53:08.377Z,65.80
2019-03-19T07:55:40.356Z,65.15
2019-03-19T07:58:15.322Z,64.61
2019-03-19T08:00:45.951Z,64.80
2019-03-19T08:03:17.989Z,64.04
2019-03-19T08:05:57.508Z,63.74
2019-03-19T08:08:28.157Z,64.31
2019-03-19T08:10:58.983Z,63.59
2019-03-19T08:13:30.440Z,63.01
2019-03-19T08:16:02.727Z,62.38
2019-03-19T08:18:36.249Z,63.39
2019-03-19T08:21:06.944Z,62.16
2019-03-19T08:23:40.081Z,62.54
2019-03-19T08:26:13.790Z,61.84
2019-03-19T08:28:55.032Z,61.19
2019-03-19T08:31:18.914Z,61.82
2019-03-19T08:33:49.448Z,61.29
2019-03-19T08:36:19.834Z,61.82
2019-03-19T08:38:50.292Z,61.89
2019-03-19T08:41:37.104Z,61.68
2019-03-19T08:44:07.792Z,62.22
2019-03-19T08:46:38.290Z,58.85
2019-03-19T08:49:08.893Z,59.80
2019-03-19T08:51:39.333Z,60.81
2019-03-19T08:54:11.169Z,60.35
2019-03-19T08:56:44.577Z,59.06
2019-03-19T08:59:17.443Z,59.41
2019-03-19T09:01:48.031Z,58.96
2019-03-19T09:04:18.632Z,58.47
2019-03-19T09:06:49.161Z,58.74
2019-03-19T09:09:21.390Z,59.64
2019-03-19T09:11:53.472Z,58.93
2019-03-19T09:14:28.561Z,59.66
2019-03-19T09:17:02.949Z,57.79
2019-03-19T09:19:34.361Z,57.50
2019-03-19T09:22:06.487Z,57.15
2019-03-19T09:24:45.310Z,56.69
2019-03-19T09:27:16.012Z,56.52
2019-03-19T09:29:48.303Z,57.24
2019-03-19T09:32:20.335Z,57.05
2019-03-19T09:34:52.214Z,56.92
2019-03-19T09:37:22.868Z,56.36
2019-03-19T09:39:53.297Z,57.41
2019-03-19T09:42:23.983Z,56.20
2019-03-19T09:44:58.479Z,55.89
2019-03-19T09:47:26.891Z,56.13
2019-03-19T09:49:58.836Z,53.95
2019-03-19T09:52:32.425Z,55.26
2019-03-19T09:55:05.856Z,56.15
2019-03-19T09:57:36.396Z,55.58
2019-03-19T10:00:18.500Z,56.45
2019-03-19T10:02:49.961Z,55.60
2019-03-19T10:05:22.160Z,55.15
2019-03-19T10:07:52.787Z,54.64
2019-03-19T10:10:27.145Z,54.22
2019-03-19T10:12:59.393Z,54.42
2019-03-19T10:15:30.691Z,53.17
2019-03-19T10:21:02.291Z,52.86
2019-03-19T10:23:34.162Z,52.18
2019-03-19T10:26:06.839Z,52.23
2019-03-19T10:28:42.676Z,53.23
2019-03-19T10:31:19.274Z,53.86
2019-03-19T10:33:47.103Z,53.30
2019-03-19T10:36:26.730Z,53.21
2019-03-19T10:38:57.363Z,52.88
2019-03-19T10:41:29.896Z,52.54
2019-03-19T10:44:01.792Z,52.59
2019-03-19T10:46:33.292Z,51.59
2019-03-19T10:49:04.166Z,51.70
2019-03-19T10:51:35.269Z,49.73
2019-03-19T10:54:08.935Z,50.84
2019-03-19T10:56:40.193Z,51.52
2019-03-19T10:59:12.139Z,51.03
2019-03-19T11:01:45.376Z,51.40
2019-03-19T11:04:16.691Z,50.62
2019-03-19T11:06:48.760Z,50.63
2019-03-19T11:09:19.467Z,48.61
2019-03-19T11:11:50.324Z,48.96
2019-03-19T11:14:24.788Z,50.53
2019-03-19T11:16:56.959Z,49.80
2019-03-19T11:19:29.189Z,51.04
2019-03-19T11:22:01.567Z,49.87
2019-03-19T11:24:32.287Z,50.68
2019-03-19T11:27:14.166Z,48.72
2019-03-19T11:29:46.149Z,48.54
2019-03-19T11:32:18.219Z,48.00
2019-03-19T11:34:51.743Z,48.82
2019-03-19T11:37:26.818Z,48.61
2019-03-19T11:39:59.061Z,48.36
2019-03-19T11:42:31.493Z,48.17
2019-03-19T11:45:02.198Z,48.33
2019-03-19T11:47:32.825Z,48.52
2019-03-19T11:50:11.343Z,49.09
2019-03-19T11:52:43.545Z,49.13
2019-03-19T11:55:15.125Z,48.25
2019-03-19T11:57:46.314Z,47.50
2019-03-19T12:00:21.275Z,48.15
2019-03-19T12:03:10.867Z,48.02
2019-03-19T12:05:35.506Z,47.29
2019-03-19T12:08:08.352Z,47.27
2019-03-19T12:10:38.979Z,47.22
2019-03-19T12:13:14.710Z,47.81
2019-03-19T12:15:45.359Z,48.07
2019-03-19T12:18:16.184Z,47.83
2019-03-19T12:20:51.044Z,48.05
2019-03-19T12:23:36.185Z,48.08
2019-03-19T12:29:23.122Z,47.73
2019-03-19T12:32:05.487Z,48.27
2019-03-19T12:38:05.830Z,47.22
2019-03-19T12:40:37.602Z,47.26
2019-03-19T12:43:08.211Z,45.37
2019-03-19T12:45:38.712Z,44.37
2019-03-19T12:48:09.223Z,44.33
2019-03-19T12:53:33.370Z,44.89
2019-03-19T12:56:03.822Z,45.27
2019-03-19T12:58:34.242Z,45.30
2019-03-19T13:01:04.894Z,44.30
2019-03-19T13:03:37.329Z,45.00
2019-03-19T13:06:07.957Z,45.74
2019-03-19T13:08:41.514Z,46.17
2019-03-19T13:11:12.150Z,47.04
2019-03-19T13:13:42.780Z,45.53
2019-03-19T13:16:14.962Z,46.01
2019-03-19T13:18:45.709Z,44.76
2019-03-19T13:21:24.036Z,46.35
2019-03-19T13:23:59.396Z,46.38
2019-03-19T13:26:29.967Z,46.51
2019-03-19T13:29:00.521Z,46.13
2019-03-19T13:31:33.919Z,46.21
2019-03-19T13:34:04.448Z,47.18
2019-03-19T13:36:34.962Z,46.50
2019-03-19T13:39:07.278Z,45.44
2019-03-19T13:41:37.805Z,46.64
2019-03-19T13:44:08.323Z,45.80
2019-03-19T13:46:41.889Z,46.22
2019-03-19T13:49:15.360Z,45.67
2019-03-19T13:52:04.053Z,45.41
2019-03-19T13:54:34.769Z,45.81
2019-03-19T13:57:05.215Z,46.54
2019-03-19T13:59:36.223Z,45.88
2019-03-19T14:02:06.913Z,45.70
2019-03-19T14:04:38.946Z,45.15
2019-03-19T14:07:19.712Z,45.03
2019-03-19T14:15:27.949Z,45.97
2019-03-19T14:18:01.595Z,46.27
2019-03-19T14:20:33.455Z,46.51
2019-03-19T14:23:04.856Z,46.27
2019-03-19T14:25:35.448Z,46.55
2019-03-19T14:28:05.951Z,46.01
2019-03-19T14:30:36.378Z,45.54
2019-03-19T14:33:16.571Z,46.47
2019-03-19T14:35:47.064Z,46.17
2019-03-19T14:38:35.387Z,46.52
2019-03-19T14:41:13.515Z,45.62
2019-03-19T14:43:49.404Z,45.66
2019-03-19T14:46:20.160Z,45.95
2019-03-19T14:48:50.889Z,46.15
2019-03-19T14:51:22.666Z,45.28
2019-03-19T14:53:53.205Z,45.22
2019-03-19T14:56:24.096Z,45.96
2019-03-19T14:58:57.243Z,45.81
2019-03-19T15:01:27.961Z,46.94
2019-03-19T15:07:22.498Z,46.92
2019-03-19T15:09:54.132Z,47.60
2019-03-19T15:12:25.649Z,47.77
2019-03-19T15:14:58.065Z,48.32
2019-03-19T15:17:28.662Z,48.88
2019-03-19T15:20:05.935Z,49.15
2019-03-19T15:26:13.500Z,50.17
2019-03-19T15:29:02.162Z,49.56
2019-03-19T15:31:32.545Z,50.43
2019-03-19T15:34:12.706Z,50.87
2019-03-19T15:36:43.625Z,50.66
2019-03-19T15:39:14.372Z,50.44
2019-03-19T15:41:44.974Z,51.33
2019-03-19T15:44:19.739Z,51.54
2019-03-19T15:46:51.915Z,52.04
2019-03-19T15:49:38.462Z,52.15
2019-03-19T15:52:02.552Z,52.58
2019-03-19T15:54:33.011Z,53.15
2019-03-19T15:57:03.454Z,52.99
2019-03-19T15:59:35.910Z,53.36
2019-03-19T16:02:07.950Z,53.60
2019-03-19T16:04:44.143Z,53.76
2019-03-19T16:07:14.710Z,53.43
2019-03-19T16:09:46.752Z,53.76
2019-03-19T16:12:17.318Z,53.75
2019-03-19T16:14:57.294Z,54.17
2019-03-19T16:17:30.264Z,54.67
2019-03-19T16:20:00.884Z,54.67
2019-03-19T16:22:37.079Z,54.93
2019-03-19T16:25:10.129Z,54.88
2019-03-19T16:27:40.615Z,55.49
2019-03-19T16:33:08.236Z,54.97
2019-03-19T16:38:43.676Z,54.38
2019-03-19T16:41:14.287Z,53.71
2019-03-19T16:44:01.395Z,54.35
2019-03-19T16:49:28.577Z,54.42
2019-03-19T16:49:58.028Z,54.46
2019-03-19T16:52:57.146Z,53.59
2019-03-19T16:58:43.639Z,53.19
2019-03-19T17:04:12.493Z,54.22
2019-03-19T17:06:46.311Z,53.61
2019-03-19T17:09:19.805Z,53.66
2019-03-19T17:12:10.470Z,53.20
2019-03-19T17:14:53.106Z,53.74
2019-03-19T17:17:23.081Z,53.93
2019-03-19T17:19:58.612Z,54.57
2019-03-19T17:23:04.300Z,54.00
2019-03-19T17:25:36.188Z,53.92
2019-03-19T17:28:22.092Z,53.87
2019-03-19T17:30:55.637Z,54.55
2019-03-19T17:33:37.888Z,55.19
2019-03-19T17:36:24.399Z,55.35
2019-03-19T17:38:57.324Z,55.73
2019-03-19T17:41:28.028Z,55.13
2019-03-19T17:46:49.854Z,55.48
2019-03-19T17:49:20.610Z,55.41
2019-03-19T17:51:51.137Z,55.91
2019-03-19T17:54:23.038Z,56.42
2019-03-19T17:56:59.477Z,56.67
2019-03-19T17:59:46.819Z,56.55
2019-03-19T18:02:25.201Z,57.04
2019-03-19T18:05:01.659Z,57.59
2019-03-19T18:07:34.129Z,57.36
2019-03-19T18:10:13.672Z,57.73
2019-03-19T18:12:44.490Z,57.79
2019-03-19T18:15:16.476Z,58.04
2019-03-19T18:17:51.402Z,58.05
2019-03-19T18:20:26.459Z,58.14
2019-03-19T18:23:06.258Z,58.08
2019-03-19T18:25:39.031Z,57.70
2019-03-19T18:28:18.243Z,57.96
2019-03-19T18:30:51.081Z,58.32
2019-03-19T18:33:29.296Z,58.03
2019-03-19T18:35:59.868Z,58.71
2019-03-19T18:38:31.999Z,59.05
2019-03-19T18:41:02.518Z,59.08
2019-03-19T18:43:40.915Z,58.92
2019-03-19T18:46:11.435Z,58.94
2019-03-19T18:48:42.092Z,59.00
2019-03-19T18:51:12.685Z,59.18
2019-03-19T18:53:43.284Z,60.02
2019-03-19T18:56:13.776Z,60.06
2019-03-19T18:58:52.629Z,59.43
2019-03-19T19:01:24.087Z,59.58
2019-03-19T19:03:54.587Z,59.95
2019-03-19T19:06:25.216Z,59.79
2019-03-19T19:08:59.592Z,59.97
2019-03-19T19:11:32.718Z,60.56
2019-03-19T19:14:03.358Z,60.99
2019-03-19T19:16:33.799Z,60.61
2019-03-19T19:19:04.517Z,61.14
2019-03-19T19:21:35.143Z,61.17
2019-03-19T19:24:08.856Z,61.52
2019-03-19T19:26:39.384Z,62.13
2019-03-19T19:29:09.978Z,62.54
2019-03-19T19:31:42.491Z,62.75
2019-03-19T19:34:12.683Z,62.40
2019-03-19T19:36:45.163Z,62.70
2019-03-19T19:39:17.470Z,63.51
2019-03-19T19:41:47.971Z,62.80
2019-03-19T19:44:18.523Z,63.27
2019-03-19T19:46:49.037Z,62.79
2019-03-19T19:49:21.528Z,63.46
2019-03-19T19:52:00.530Z,63.90
2019-03-19T19:54:31.106Z,63.27
2019-03-19T19:57:01.636Z,62.68
2019-03-19T19:59:33.141Z,63.12
2019-03-19T20:02:03.622Z,62.59
2019-03-19T20:04:42.189Z,62.72
2019-03-19T20:07:14.234Z,62.70
2019-03-19T20:09:44.674Z,63.51
2019-03-19T20:12:15.174Z,63.16
2019-03-19T20:14:45.634Z,62.67
2019-03-19T20:17:16.034Z,62.67
2019-03-19T20:19:46.446Z,63.40
2019-03-19T20:22:17.040Z,63.47
2019-03-19T20:24:47.408Z,63.85
2019-03-19T20:27:17.900Z,64.37
2019-03-19T20:29:48.368Z,64.70
2019-03-19T20:32:18.827Z,65.10
2019-03-19T20:34:49.249Z,64.67
2019-03-19T20:37:19.706Z,64.69
2019-03-19T20:39:50.281Z,64.56
2019-03-19T20:42:20.720Z,65.41
2019-03-19T20:44:51.157Z,64.89
2019-03-19T20:47:21.556Z,63.99
2019-03-19T20:49:52.142Z,64.13
2019-03-19T20:52:22.671Z,64.87
2019-03-19T20:54:53.103Z,64.51
2019-03-19T20:57:26.784Z,64.92
2019-03-19T20:59:57.210Z,65.49
2019-03-19T21:02:27.621Z,65.91
2019-03-19T21:04:58.139Z,65.88
2019-03-19T21:07:28.586Z,65.27
2019-03-19T21:09:59.065Z,66.11
2019-03-19T21:12:29.832Z,66.30
2019-03-19T21:15:00.449Z,65.46
2019-03-19T21:17:30.944Z,66.19
2019-03-19T21:20:01.461Z,66.58
2019-03-19T21:22:31.957Z,66.64
2019-03-19T21:25:02.424Z,66.74
2019-03-19T21:27:32.895Z,66.53
2019-03-19T21:30:03.567Z,67.03
2019-03-19T21:32:34.062Z,67.08
2019-03-19T21:35:05.839Z,67.56
2019-03-19T21:37:36.603Z,67.66
2019-03-19T21:40:14.358Z,68.05
2019-03-19T21:42:44.958Z,68.27
2019-03-19T21:45:23.154Z,68.61
2019-03-19T21:47:53.604Z,68.79
2019-03-19T21:50:24.739Z,69.24
2019-03-19T21:52:55.134Z,69.22
2019-03-19T21:55:25.559Z,68.98
2019-03-19T21:57:55.952Z,69.52
2019-03-19T22:00:29.059Z,68.77
2019-03-19T22:02:59.469Z,69.55
2019-03-19T22:05:29.944Z,69.33
2019-03-19T22:08:00.361Z,68.68
2019-03-19T22:10:30.849Z,69.38
2019-03-19T22:13:01.290Z,70.03
2019-03-19T22:15:31.700Z,70.17
2019-03-19T22:18:03.639Z,70.45
2019-03-19T22:20:34.116Z,70.83
2019-03-19T22:23:05.538Z,71.44
2019-03-19T22:25:35.941Z,70.91
2019-03-19T22:28:06.343Z,71.14
2019-03-19T22:30:37.334Z,70.67
2019-03-19T22:33:07.767Z,70.60
2019-03-19T22:35:38.158Z,70.68
2019-03-19T22:38:08.998Z,71.43
2019-03-19T22:40:39.467Z,71.50
2019-03-19T22:43:09.916Z,71.98
2019-03-19T22:45:40.350Z,72.19
2019-03-19T22:48:10.710Z,71.03
2019-03-19T22:50:41.198Z,71.63
2019-03-19T22:53:11.706Z,71.75
2019-03-19T22:55:42.147Z,72.98
2019-03-19T22:58:12.551Z,73.01
2019-03-19T23:00:44.770Z,73.45
2019-03-19T23:03:15.341Z,73.93
2019-03-19T23:05:45.843Z,74.27
2019-03-19T23:08:16.291Z,74.88
2019-03-19T23:10:47.250Z,75.14
2019-03-19T23:13:19.192Z,76.06
2019-03-19T23:15:49.635Z,75.25
2019-03-19T23:18:20.116Z,74.75
2019-03-19T23:20:50.559Z,75.26
2019-03-19T23:23:20.993Z,75.57
2019-03-19T23:25:51.417Z,76.05
2019-03-19T23:28:24.231Z,76.09
2019-03-19T23:30:56.186Z,77.15
2019-03-19T23:33:26.582Z,77.41
2019-03-19T23:35:57.063Z,77.57
2019-03-19T23:38:28.283Z,76.45
2019-03-19T23:40:58.758Z,77.04
2019-03-19T23:43:29.160Z,77.83
2019-03-19T23:45:59.553Z,77.14
2019-03-19T23:48:32.202Z,77.84
2019-03-19T23:51:02.643Z,77.75
2019-03-19T23:53:33.071Z,77.31
2019-03-19T23:56:03.498Z,77.26
2019-03-19T23:58:33.948Z,76.88
